Time,TemperatureF,DewpointF,PressureIn,WindDirection,WindDirectionDegrees,WindSpeedMPH,WindSpeedGustMPH,Humidity,HourlyPrecipIn,Conditions,Clouds,dailyrainin,SoftwareType,DateUTC
2013-07-16 00:01:00,76.1,74.2,30.27,NNW,338,0.0,0.0,94,0.00,,FEW060,0.00,VWS V14.01,2013-07-16 04:01:00,
2013-07-16 00:06:00,76.0,74.2,30.27,NNW,337,0.0,0.0,94,0.00,,SCT065,0.00,VWS V14.01,2013-07-16 04:06:00,
2013-07-16 00:11:00,75.9,74.4,30.27,NNW,337,0.0,0.0,95,0.00,,SCT065,0.00,VWS V14.01,2013-07-16 04:11:00,
2013-07-16 00:16:00,75.8,74.3,30.27,NNW,337,0.0,0.0,95,0.00,,SCT065,0.00,VWS V14.01,2013-07-16 04:16:00,
2013-07-16 00:21:00,75.7,74.2,30.27,NNW,337,0.0,0.0,95,0.00,,SCT065,0.00,VWS V14.01,2013-07-16 04:21:00,
2013-07-16 00:26:00,75.6,74.1,30.27,NNW,337,0.0,0.0,95,0.00,,SCT065,0.00,VWS V14.01,2013-07-16 04:26:00,
2013-07-16 00:31:00,75.5,74.0,30.27,NNW,336,0.0,0.0,95,0.00,,SCT065,0.00,VWS V14.01,2013-07-16 04:31:00,
2013-07-16 00:36:00,75.5,74.3,30.27,NNW,336,0.0,0.0,96,0.00,,SCT065,0.00,VWS V14.01,2013-07-16 04:36:00,
2013-07-16 00:41:00,75.3,74.1,30.27,NNW,335,0.0,0.0,96,0.00,,SCT065,0.00,VWS V14.01,2013-07-16 04:41:00,
2013-07-16 00:46:00,75.2,74.0,30.27,NNW,331,0.0,0.0,96,0.00,,SCT065,0.00,VWS V14.01,2013-07-16 04:46:00,
2013-07-16 00:51:00,75.0,73.8,30.27,NNW,338,0.0,0.0,96,0.00,,SCT065,0.00,VWS V14.01,2013-07-16 04:51:00,
2013-07-16 00:57:00,74.9,73.7,30.27,NNW,338,0.0,0.0,96,0.00,,SCT065,0.00,VWS V14.01,2013-07-16 04:57:00,
2013-07-16 01:02:00,74.8,73.6,30.27,NNW,338,0.0,0.0,96,0.00,,CLR,0.00,VWS V14.01,2013-07-16 05:02:00,
2013-07-16 01:07:00,74.7,73.5,30.27,NNW,338,0.0,0.0,96,0.00,,CLR,0.00,VWS V14.01,2013-07-16 05:07:00,
2013-07-16 01:12:00,74.6,73.4,30.27,NNW,338,0.0,0.0,96,0.00,,CLR,0.00,VWS V14.01,2013-07-16 05:12:00,
2013-07-16 01:17:00,74.4,73.2,30.27,NNW,338,0.0,0.0,96,0.00,,CLR,0.00,VWS V14.01,2013-07-16 05:17:00,
2013-07-16 01:22:00,74.4,73.5,30.27,NNW,338,0.0,0.0,97,0.00,,CLR,0.00,VWS V14.01,2013-07-16 05:22:00,
2013-07-16 01:27:00,74.4,73.5,30.28,NNW,337,0.0,0.0,97,0.00,,CLR,0.00,VWS V14.01,2013-07-16 05:27:00,
2013-07-16 01:32:00,74.4,73.5,30.28,NNW,338,0.0,0.0,97,0.00,,CLR,0.00,VWS V14.01,2013-07-16 05:32:00,
2013-07-16 01:37:00,74.3,73.4,30.27,NNW,337,0.0,0.0,97,0.00,,CLR,0.00,VWS V14.01,2013-07-16 05:37:00,
2013-07-16 01:42:00,74.3,73.4,30.27,NNW,337,0.0,0.0,97,0.00,,CLR,0.00,VWS V14.01,2013-07-16 05:42:00,
2013-07-16 01:47:00,74.2,73.3,30.27,NNW,337,0.0,0.0,97,0.00,,CLR,0.00,VWS V14.01,2013-07-16 05:47:00,
2013-07-16 01:52:00,74.1,73.2,30.28,NNW,338,0.0,0.0,97,0.00,,CLR,0.00,VWS V14.01,2013-07-16 05:52:00,
2013-07-16 01:57:00,74.1,73.2,30.28,NNW,337,0.0,0.0,97,0.00,,CLR,0.00,VWS V14.01,2013-07-16 05:57:00,
2013-07-16 02:02:00,74.0,73.4,30.27,NNW,337,0.0,0.0,98,0.00,,,0.00,VWS V14.01,2013-07-16 06:02:00,
2013-07-16 02:07:00,73.9,73.3,30.27,NNW,337,0.0,0.0,98,0.00,,,0.00,VWS V14.01,2013-07-16 06:07:00,
2013-07-16 02:12:00,73.9,73.3,30.28,NNW,337,0.0,0.0,98,0.00,,,0.00,VWS V14.01,2013-07-16 06:12:00,
2013-07-16 02:17:00,73.8,73.2,30.28,NNW,337,0.0,0.0,98,0.00,,,0.00,VWS V14.01,2013-07-16 06:17:00,
2013-07-16 02:22:00,73.6,73.0,30.27,NNW,337,0.0,0.0,98,0.00,,,0.00,VWS V14.01,2013-07-16 06:22:00,
2013-07-16 02:27:00,73.5,72.9,30.27,NNW,337,0.0,0.0,98,0.00,,,0.00,VWS V14.01,2013-07-16 06:27:00,
2013-07-16 02:32:00,73.4,72.8,30.27,NNW,337,0.0,0.0,98,0.00,,,0.00,VWS V14.01,2013-07-16 06:32:00,
2013-07-16 02:37:00,73.2,72.6,30.27,NNW,337,0.0,0.0,98,0.00,,,0.00,VWS V14.01,2013-07-16 06:37:00,
2013-07-16 02:42:00,73.1,72.5,30.27,NNW,337,0.0,0.0,98,0.00,,,0.00,VWS V14.01,2013-07-16 06:42:00,
2013-07-16 02:47:00,73.0,72.4,30.27,NNW,337,0.0,0.0,98,0.00,,,0.00,VWS V14.01,2013-07-16 06:47:00,
2013-07-16 02:52:00,72.9,72.3,30.27,NNW,337,0.0,0.0,98,0.00,,,0.00,VWS V14.01,2013-07-16 06:52:00,
2013-07-16 02:57:00,72.9,72.3,30.27,NNW,337,0.0,0.0,98,0.00,,,0.00,VWS V14.01,2013-07-16 06:57:00,
2013-07-16 03:02:00,72.7,72.1,30.27,NNW,337,0.0,0.0,98,0.00,,,0.00,VWS V14.01,2013-07-16 07:02:00,
2013-07-16 03:07:00,72.6,72.0,30.27,NNW,337,0.0,0.0,98,0.00,,,0.00,VWS V14.01,2013-07-16 07:07:00,
2013-07-16 03:12:00,72.5,71.9,30.27,NNW,337,0.0,0.0,98,0.00,,,0.00,VWS V14.01,2013-07-16 07:12:00,
2013-07-16 03:17:00,72.3,71.7,30.27,NNW,336,0.0,0.0,98,0.00,,,0.00,VWS V14.01,2013-07-16 07:17:00,
2013-07-16 03:22:00,72.3,71.7,30.27,NNW,336,0.0,0.0,98,0.00,,,0.00,VWS V14.01,2013-07-16 07:22:00,
2013-07-16 03:27:00,72.5,72.2,30.28,NNW,336,0.0,0.0,99,0.00,,,0.00,VWS V14.01,2013-07-16 07:27:00,
2013-07-16 03:32:00,72.6,72.3,30.28,NNW,336,0.0,0.0,99,0.00,,,0.00,VWS V14.01,2013-07-16 07:32:00,
2013-07-16 03:38:00,72.5,72.2,30.28,NNW,336,0.0,0.0,99,0.00,,,0.00,VWS V14.01,2013-07-16 07:38:00,
2013-07-16 03:42:00,72.3,72.0,30.28,NNW,336,0.0,0.0,99,0.00,,,0.00,VWS V14.01,2013-07-16 07:42:00,
2013-07-16 03:48:00,72.2,71.9,30.28,NNW,336,0.0,0.0,99,0.00,,,0.00,VWS V14.01,2013-07-16 07:48:00,
2013-07-16 03:53:00,72.0,71.4,30.28,NNW,335,0.0,0.0,98,0.00,,,0.00,VWS V14.01,2013-07-16 07:53:00,
2013-07-16 03:58:00,71.8,71.5,30.28,NNW,335,0.0,0.0,99,0.00,,,0.00,VWS V14.01,2013-07-16 07:58:00,
2013-07-16 04:03:00,71.7,71.4,30.28,NNW,334,0.0,0.0,99,0.00,,,0.00,VWS V14.01,2013-07-16 08:03:00,
2013-07-16 04:08:00,71.6,71.3,30.28,NNW,334,0.0,0.0,99,0.00,,,0.00,VWS V14.01,2013-07-16 08:08:00,
2013-07-16 04:13:00,71.4,71.1,30.28,NNW,334,0.0,0.0,99,0.00,,,0.00,VWS V14.01,2013-07-16 08:13:00,
2013-07-16 04:18:00,71.4,71.1,30.28,NNW,334,0.0,0.0,99,0.00,,,0.00,VWS V14.01,2013-07-16 08:18:00,
2013-07-16 04:23:00,71.3,71.0,30.28,NNW,334,0.0,0.0,99,0.00,,,0.00,VWS V14.01,2013-07-16 08:23:00,
2013-07-16 04:28:00,71.2,70.9,30.28,NNW,334,0.0,0.0,99,0.00,,,0.00,VWS V14.01,2013-07-16 08:28:00,
2013-07-16 04:33:00,71.1,70.8,30.28,NNW,329,0.0,0.0,99,0.00,,,0.00,VWS V14.01,2013-07-16 08:33:00,
2013-07-16 04:38:00,70.9,70.6,30.28,NNW,338,0.0,0.0,99,0.00,,,0.00,VWS V14.01,2013-07-16 08:38:00,
2013-07-16 04:43:00,70.8,70.5,30.29,NNW,338,0.0,0.0,99,0.00,,,0.00,VWS V14.01,2013-07-16 08:43:00,
2013-07-16 04:48:00,70.8,70.5,30.29,NNW,338,0.0,0.0,99,0.00,,,0.00,VWS V14.01,2013-07-16 08:48:00,
2013-07-16 04:53:00,70.7,70.4,30.29,NNW,338,0.0,0.0,99,0.00,,,0.00,VWS V14.01,2013-07-16 08:53:00,
2013-07-16 04:58:00,70.6,70.6,30.29,NNW,338,0.0,0.0,100,0.00,,,0.00,VWS V14.01,2013-07-16 08:58:00,
2013-07-16 05:03:00,70.4,70.1,30.29,NNW,338,0.0,0.0,99,0.00,,,0.00,VWS V14.01,2013-07-16 09:03:00,
2013-07-16 05:08:00,70.3,70.3,30.29,NNW,338,0.0,0.0,100,0.00,,,0.00,VWS V14.01,2013-07-16 09:08:00,
2013-07-16 05:13:00,70.3,70.3,30.29,NNW,338,0.0,0.0,100,0.00,,,0.00,VWS V14.01,2013-07-16 09:13:00,
2013-07-16 05:18:00,70.2,70.2,30.29,NNW,338,0.0,0.0,100,0.00,,,0.00,VWS V14.01,2013-07-16 09:18:00,
2013-07-16 05:23:00,70.2,70.2,30.29,NNW,338,0.0,0.0,100,0.00,,,0.00,VWS V14.01,2013-07-16 09:23:00,
2013-07-16 05:28:00,70.1,69.8,30.30,NNW,338,0.0,0.0,99,0.00,,,0.00,VWS V14.01,2013-07-16 09:28:00,
2013-07-16 05:33:00,70.0,70.0,30.30,NNW,338,0.0,0.0,100,0.00,,,0.00,VWS V14.01,2013-07-16 09:33:00,
2013-07-16 05:38:00,69.9,69.9,30.30,NNW,338,0.0,0.0,100,0.00,,,0.00,VWS V14.01,2013-07-16 09:38:00,
2013-07-16 05:43:00,69.9,69.9,30.30,NNW,338,0.0,0.0,100,0.00,,,0.00,VWS V14.01,2013-07-16 09:43:00,
2013-07-16 05:48:00,69.9,69.9,30.30,NNW,338,0.0,0.0,100,0.00,,,0.00,VWS V14.01,2013-07-16 09:48:00,
2013-07-16 05:53:00,69.8,69.8,30.30,NNW,338,0.0,0.0,100,0.00,,,0.00,VWS V14.01,2013-07-16 09:53:00,
2013-07-16 05:58:00,69.8,69.8,30.30,NNW,338,0.0,0.0,100,0.00,,,0.00,VWS V14.01,2013-07-16 09:58:00,
2013-07-16 06:03:00,69.8,69.8,30.30,NNW,338,0.0,0.0,100,0.00,,,0.00,VWS V14.01,2013-07-16 10:03:00,
2013-07-16 06:08:00,69.8,69.8,30.31,NNW,338,0.0,0.0,100,0.00,,,0.00,VWS V14.01,2013-07-16 10:08:00,
2013-07-16 06:13:00,69.8,69.8,30.31,NNW,338,0.0,0.0,100,0.00,,,0.00,VWS V14.01,2013-07-16 10:13:00,
2013-07-16 06:18:00,70.0,70.0,30.31,NNW,338,0.0,0.0,100,0.00,,,0.00,VWS V14.01,2013-07-16 10:18:00,
2013-07-16 06:23:00,70.1,70.1,30.31,NNW,338,0.0,0.0,100,0.00,,,0.00,VWS V14.01,2013-07-16 10:23:00,
2013-07-16 06:28:00,70.2,70.2,30.31,NNW,338,0.0,0.0,100,0.00,,,0.00,VWS V14.01,2013-07-16 10:28:00,
2013-07-16 06:33:00,70.3,70.3,30.31,NNW,338,0.0,0.0,100,0.00,,,0.00,VWS V14.01,2013-07-16 10:33:00,
2013-07-16 06:38:00,70.3,70.3,30.31,NNW,338,0.0,0.0,100,0.00,,,0.00,VWS V14.01,2013-07-16 10:38:00,
2013-07-16 06:43:00,70.3,70.3,30.31,NNW,338,0.0,0.0,100,0.00,,,0.00,VWS V14.01,2013-07-16 10:43:00,
2013-07-16 06:48:00,70.4,70.4,30.31,NNW,338,0.0,0.0,100,0.00,,,0.00,VWS V14.01,2013-07-16 10:48:00,
2013-07-16 06:53:00,70.5,70.5,30.32,NNW,338,0.0,0.0,100,0.00,,,0.00,VWS V14.01,2013-07-16 10:53:00,
2013-07-16 06:58:00,70.6,70.6,30.32,NNW,338,0.0,0.0,100,0.00,,,0.00,VWS V14.01,2013-07-16 10:58:00,
2013-07-16 07:03:00,70.8,70.8,30.32,NNW,338,0.0,0.0,100,0.00,,,0.00,VWS V14.01,2013-07-16 11:03:00,
2013-07-16 07:08:00,71.0,71.0,30.32,NNW,338,0.0,0.0,100,0.00,,,0.00,VWS V14.01,2013-07-16 11:08:00,
2013-07-16 07:13:00,71.3,71.3,30.32,NNW,338,0.0,0.0,100,0.00,,,0.00,VWS V14.01,2013-07-16 11:13:00,
2013-07-16 07:18:00,71.5,71.5,30.32,NNW,338,0.0,0.0,100,0.00,,,0.00,VWS V14.01,2013-07-16 11:18:00,
2013-07-16 07:24:00,71.8,71.8,30.32,NNW,338,0.0,0.0,100,0.00,,,0.00,VWS V14.01,2013-07-16 11:24:00,
2013-07-16 07:28:00,72.2,72.2,30.32,NNW,338,0.0,0.0,100,0.00,,,0.00,VWS V14.01,2013-07-16 11:28:00,
2013-07-16 07:29:00,72.2,72.2,30.33,NNW,338,0.0,0.0,100,0.00,,,0.00,VWS V14.01,2013-07-16 11:29:00,
2013-07-16 07:34:00,72.5,72.5,30.32,NNW,338,0.0,0.0,100,0.00,,,0.00,VWS V14.01,2013-07-16 11:34:00,
2013-07-16 07:39:00,72.8,72.8,30.33,NNW,338,0.0,0.0,100,0.00,,,0.00,VWS V14.01,2013-07-16 11:39:00,
2013-07-16 07:44:00,73.1,73.1,30.33,NNW,338,0.0,0.0,100,0.00,,,0.00,VWS V14.01,2013-07-16 11:44:00,
2013-07-16 07:49:00,73.5,73.5,30.33,NNW,336,0.0,1.0,100,0.00,,,0.00,VWS V14.01,2013-07-16 11:49:00,
2013-07-16 07:54:00,74.0,74.0,30.33,NNW,336,0.0,1.0,100,0.00,,,0.00,VWS V14.01,2013-07-16 11:54:00,
2013-07-16 07:59:00,74.7,74.7,30.33,West,280,0.0,1.0,100,0.00,,,0.00,VWS V14.01,2013-07-16 11:59:00,
2013-07-16 08:04:00,75.7,75.7,30.33,West,268,0.0,1.0,100,0.00,,CLR,0.00,VWS V14.01,2013-07-16 12:04:00,
2013-07-16 08:09:00,76.3,75.7,30.33,West,268,0.0,1.0,98,0.00,,CLR,0.00,VWS V14.01,2013-07-16 12:09:00,
2013-07-16 08:14:00,76.9,76.0,30.33,West,268,0.0,1.0,97,0.00,,CLR,0.00,VWS V14.01,2013-07-16 12:14:00,
2013-07-16 08:19:00,77.7,75.8,30.33,West,267,0.0,2.0,94,0.00,,CLR,0.00,VWS V14.01,2013-07-16 12:19:00,
2013-07-16 08:24:00,78.4,75.9,30.33,West,266,0.0,2.0,92,0.00,,CLR,0.00,VWS V14.01,2013-07-16 12:24:00,
2013-07-16 08:29:00,79.1,75.9,30.33,West,266,0.0,2.0,90,0.00,,CLR,0.00,VWS V14.01,2013-07-16 12:29:00,
2013-07-16 08:34:00,80.1,76.2,30.33,West,266,0.0,0.0,88,0.00,,CLR,0.00,VWS V14.01,2013-07-16 12:34:00,
2013-07-16 08:39:00,80.8,76.6,30.33,SSW,207,0.0,1.0,87,0.00,,CLR,0.00,VWS V14.01,2013-07-16 12:39:00,
2013-07-16 08:44:00,81.4,75.4,30.33,WSW,256,0.0,2.0,82,0.00,,CLR,0.00,VWS V14.01,2013-07-16 12:44:00,
2013-07-16 08:49:00,82.1,76.1,30.33,WSW,256,0.0,2.0,82,0.00,,CLR,0.00,VWS V14.01,2013-07-16 12:49:00,
2013-07-16 08:54:00,82.8,76.4,30.33,WSW,256,1.0,2.0,81,0.00,,CLR,0.00,VWS V14.01,2013-07-16 12:54:00,
2013-07-16 08:59:00,83.5,76.3,30.33,WSW,256,0.0,2.0,79,0.00,,CLR,0.00,VWS V14.01,2013-07-16 12:59:00,
2013-07-16 09:04:00,84.1,76.9,30.33,South,185,0.0,3.0,79,0.00,,CLR,0.00,VWS V14.01,2013-07-16 13:04:00,
2013-07-16 09:10:00,84.7,77.1,30.33,South,185,0.0,3.0,78,0.00,,CLR,0.00,VWS V14.01,2013-07-16 13:10:00,
2013-07-16 09:15:00,85.4,76.6,30.33,South,185,1.0,4.0,75,0.00,,CLR,0.00,VWS V14.01,2013-07-16 13:15:00,
2013-07-16 09:20:00,85.9,77.1,30.32,South,185,1.0,5.0,75,0.00,,CLR,0.00,VWS V14.01,2013-07-16 13:20:00,
2013-07-16 09:25:00,86.1,76.8,30.33,SW,218,0.0,5.0,74,0.00,,CLR,0.00,VWS V14.01,2013-07-16 13:25:00,
2013-07-16 09:30:00,86.5,77.2,30.33,SSW,207,4.0,6.0,74,0.00,,CLR,0.00,VWS V14.01,2013-07-16 13:30:00,
2013-07-16 09:35:00,86.7,77.0,30.32,South,191,0.0,4.0,73,0.00,,CLR,0.00,VWS V14.01,2013-07-16 13:35:00,
2013-07-16 09:40:00,87.1,77.0,30.32,South,185,1.0,4.0,72,0.00,,CLR,0.00,VWS V14.01,2013-07-16 13:40:00,
2013-07-16 09:45:00,87.2,75.8,30.32,WSW,238,2.0,6.0,69,0.00,,CLR,0.00,VWS V14.01,2013-07-16 13:45:00,
2013-07-16 09:50:00,87.3,76.3,30.32,WSW,238,0.0,6.0,70,0.00,,CLR,0.00,VWS V14.01,2013-07-16 13:50:00,
2013-07-16 09:55:00,87.6,76.2,30.32,SW,230,4.0,6.0,69,0.00,,CLR,0.00,VWS V14.01,2013-07-16 13:55:00,
2013-07-16 10:00:00,87.9,76.0,30.32,North,1,2.0,6.0,68,0.00,,CLR,0.00,VWS V14.01,2013-07-16 14:00:00,
2013-07-16 10:05:00,88.0,75.7,30.32,WSW,246,0.0,4.0,67,0.00,,CLR,0.00,VWS V14.01,2013-07-16 14:05:00,
2013-07-16 10:10:00,87.9,75.6,30.32,West,267,1.0,5.0,67,0.00,,CLR,0.00,VWS V14.01,2013-07-16 14:10:00,
2013-07-16 10:15:00,87.8,75.5,30.31,WSW,245,3.0,5.0,67,0.00,,CLR,0.00,VWS V14.01,2013-07-16 14:15:00,
2013-07-16 10:20:00,87.9,76.5,30.31,SSW,213,2.0,5.0,69,0.00,,CLR,0.00,VWS V14.01,2013-07-16 14:20:00,
2013-07-16 10:25:00,88.5,76.2,30.31,WSW,240,0.0,5.0,67,0.00,,CLR,0.00,VWS V14.01,2013-07-16 14:25:00,
2013-07-16 10:30:00,89.2,75.9,30.31,NNW,347,3.0,4.0,65,0.00,,CLR,0.00,VWS V14.01,2013-07-16 14:30:00,
2013-07-16 10:35:00,89.3,76.0,30.31,North,349,1.0,4.0,65,0.00,,CLR,0.00,VWS V14.01,2013-07-16 14:35:00,
2013-07-16 10:40:00,89.3,76.0,30.31,North,7,0.0,6.0,65,0.00,,CLR,0.00,VWS V14.01,2013-07-16 14:40:00,
2013-07-16 10:45:00,89.5,76.2,30.30,WSW,246,0.0,6.0,65,0.00,,CLR,0.00,VWS V14.01,2013-07-16 14:45:00,
2013-07-16 10:50:00,89.4,76.1,30.30,North,353,0.0,7.0,65,0.00,,CLR,0.00,VWS V14.01,2013-07-16 14:50:00,
2013-07-16 10:55:00,89.4,76.1,30.30,WSW,242,0.0,7.0,65,0.00,,CLR,0.00,VWS V14.01,2013-07-16 14:55:00,
2013-07-16 11:00:00,89.8,76.0,30.30,NNW,348,0.0,0.0,64,0.00,,CLR,0.00,VWS V14.01,2013-07-16 15:00:00,
2013-07-16 11:05:00,90.0,75.2,30.30,NE,40,4.0,9.0,62,0.00,,CLR,0.00,VWS V14.01,2013-07-16 15:05:00,
2013-07-16 11:10:00,89.9,76.1,30.30,NW,306,0.0,9.0,64,0.00,,CLR,0.00,VWS V14.01,2013-07-16 15:10:00,
2013-07-16 11:15:00,90.3,76.5,30.30,WSW,248,3.0,9.0,64,0.00,,CLR,0.00,VWS V14.01,2013-07-16 15:15:00,
2013-07-16 11:20:00,90.4,76.6,30.30,NE,34,6.0,9.0,64,0.00,,CLR,0.00,VWS V14.01,2013-07-16 15:20:00,
2013-07-16 11:25:00,90.4,75.6,30.30,NE,38,0.0,9.0,62,0.00,,CLR,0.00,VWS V14.01,2013-07-16 15:25:00,
2013-07-16 11:30:00,90.5,76.2,30.30,NNE,32,0.0,0.0,63,0.00,,CLR,0.00,VWS V14.01,2013-07-16 15:30:00,
2013-07-16 11:35:00,90.8,76.0,30.30,NNE,12,3.0,8.0,62,0.00,,CLR,0.00,VWS V14.01,2013-07-16 15:35:00,
2013-07-16 11:40:00,90.9,75.6,30.29,North,356,2.0,8.0,61,0.00,,CLR,0.00,VWS V14.01,2013-07-16 15:40:00,
2013-07-16 11:45:00,90.7,75.4,30.29,NNW,339,0.0,8.0,61,0.00,,CLR,0.00,VWS V14.01,2013-07-16 15:45:00,
2013-07-16 11:50:00,90.9,75.1,30.29,NE,36,0.0,8.0,60,0.00,,CLR,0.00,VWS V14.01,2013-07-16 15:50:00,
2013-07-16 11:55:00,91.7,75.8,30.29,West,261,0.0,8.0,60,0.00,,CLR,0.00,VWS V14.01,2013-07-16 15:55:00,
2013-07-16 12:00:00,92.1,74.2,30.29,ENE,58,7.0,7.0,56,0.00,,CLR,0.00,VWS V14.01,2013-07-16 16:00:00,
2013-07-16 12:05:00,92.1,74.2,30.29,NE,43,0.0,8.0,56,0.00,,CLR,0.00,VWS V14.01,2013-07-16 16:05:00,
2013-07-16 12:10:00,92.4,75.0,30.28,NNW,345,4.0,8.0,57,0.00,,CLR,0.00,VWS V14.01,2013-07-16 16:10:00,
2013-07-16 12:15:00,92.8,73.2,30.29,NE,40,12.0,12.0,53,0.00,,CLR,0.00,VWS V14.01,2013-07-16 16:15:00,
2013-07-16 12:20:00,92.6,72.4,30.28,NE,39,0.0,12.0,52,0.00,,CLR,0.00,VWS V14.01,2013-07-16 16:20:00,
2013-07-16 12:25:00,92.7,71.9,30.29,North,356,4.0,13.0,51,0.00,,CLR,0.00,VWS V14.01,2013-07-16 16:25:00,
2013-07-16 12:30:00,92.7,71.9,30.28,NE,35,4.0,9.0,51,0.00,,CLR,0.00,VWS V14.01,2013-07-16 16:30:00,
2013-07-16 12:35:00,92.9,72.7,30.28,NNE,30,3.0,11.0,52,0.00,,CLR,0.00,VWS V14.01,2013-07-16 16:35:00,
2013-07-16 12:41:00,93.0,71.6,30.28,NNW,342,8.0,13.0,50,0.00,,CLR,0.00,VWS V14.01,2013-07-16 16:41:00,
2013-07-16 12:45:00,93.0,71.6,30.28,NE,45,0.0,13.0,50,0.00,,CLR,0.00,VWS V14.01,2013-07-16 16:45:00,
2013-07-16 12:50:00,93.6,72.8,30.28,NW,307,1.0,13.0,51,0.00,,CLR,0.00,VWS V14.01,2013-07-16 16:50:00,
2013-07-16 12:55:00,94.0,72.5,30.27,NE,51,0.0,13.0,50,0.00,,CLR,0.00,VWS V14.01,2013-07-16 16:55:00,
2013-07-16 13:01:00,94.1,72.6,30.28,NNW,327,0.0,5.0,50,0.00,,CLR,0.00,VWS V14.01,2013-07-16 17:01:00,
2013-07-16 13:06:00,94.4,72.9,30.27,NW,324,0.0,5.0,50,0.00,,CLR,0.00,VWS V14.01,2013-07-16 17:06:00,
2013-07-16 13:11:00,94.7,72.0,30.27,West,267,1.0,11.0,48,0.00,,CLR,0.00,VWS V14.01,2013-07-16 17:11:00,
2013-07-16 13:16:00,94.9,71.5,30.27,NE,41,4.0,11.0,47,0.00,,CLR,0.00,VWS V14.01,2013-07-16 17:16:00,
2013-07-16 13:21:00,94.8,72.1,30.27,North,355,5.0,11.0,48,0.00,,CLR,0.00,VWS V14.01,2013-07-16 17:21:00,
2013-07-16 13:26:00,94.7,72.6,30.27,North,354,2.0,11.0,49,0.00,,CLR,0.00,VWS V14.01,2013-07-16 17:26:00,
2013-07-16 13:31:00,94.8,71.4,30.26,NNE,30,2.0,7.0,47,0.00,,CLR,0.00,VWS V14.01,2013-07-16 17:31:00,
2013-07-16 13:36:00,95.0,72.9,30.26,North,3,0.0,7.0,49,0.00,,CLR,0.00,VWS V14.01,2013-07-16 17:36:00,
2013-07-16 13:41:00,95.5,73.3,30.26,NW,317,0.0,7.0,49,0.00,,CLR,0.00,VWS V14.01,2013-07-16 17:41:00,
2013-07-16 13:46:00,95.6,72.8,30.26,North,360,8.0,9.0,48,0.00,,CLR,0.00,VWS V14.01,2013-07-16 17:46:00,
2013-07-16 13:51:00,95.5,72.1,30.26,North,351,0.0,9.0,47,0.00,,CLR,0.00,VWS V14.01,2013-07-16 17:51:00,
2013-07-16 13:56:00,95.9,73.7,30.26,NNW,345,7.0,9.0,49,0.00,,CLR,0.00,VWS V14.01,2013-07-16 17:56:00,
2013-07-16 14:01:00,95.8,73.0,30.26,North,353,0.0,4.0,48,0.00,,FEW050,0.00,VWS V14.01,2013-07-16 18:01:00,
2013-07-16 14:06:00,96.1,74.5,30.26,NW,325,0.0,4.0,50,0.00,,FEW050,0.00,VWS V14.01,2013-07-16 18:06:00,
2013-07-16 14:11:00,95.9,73.1,30.26,NNW,346,6.0,11.0,48,0.00,,FEW050,0.00,VWS V14.01,2013-07-16 18:11:00,
2013-07-16 14:16:00,95.3,71.9,30.26,North,350,3.0,11.0,47,0.00,,FEW050,0.00,VWS V14.01,2013-07-16 18:16:00,
2013-07-16 14:21:00,94.9,72.2,30.26,NNE,25,9.0,11.0,48,0.00,,FEW050,0.00,VWS V14.01,2013-07-16 18:21:00,
2013-07-16 14:26:00,94.8,73.3,30.26,North,11,6.0,12.0,50,0.00,,FEW050,0.00,VWS V14.01,2013-07-16 18:26:00,
2013-07-16 14:31:00,94.6,72.5,30.25,North,350,7.0,8.0,49,0.00,,FEW050,0.00,VWS V14.01,2013-07-16 18:31:00,
2013-07-16 14:36:00,94.7,72.0,30.26,North,360,3.0,10.0,48,0.00,,FEW050,0.00,VWS V14.01,2013-07-16 18:36:00,
2013-07-16 14:41:00,95.2,73.6,30.25,NNW,334,2.0,10.0,50,0.00,,FEW050,0.00,VWS V14.01,2013-07-16 18:41:00,
2013-07-16 14:46:00,95.6,72.2,30.25,North,10,0.0,10.0,47,0.00,,FEW050,0.00,VWS V14.01,2013-07-16 18:46:00,
2013-07-16 14:51:00,95.6,72.8,30.25,North,3,0.0,10.0,48,0.00,,FEW050,0.00,VWS V14.01,2013-07-16 18:51:00,
2013-07-16 14:56:00,96.0,72.5,30.25,NNW,347,0.0,10.0,47,0.00,,FEW050,0.00,VWS V14.01,2013-07-16 18:56:00,
2013-07-16 15:01:00,95.4,72.6,30.25,North,11,3.0,9.0,48,0.00,,FEW060,0.00,VWS V14.01,2013-07-16 19:01:00,
2013-07-16 15:06:00,94.8,71.4,30.25,North,356,8.0,15.0,47,0.00,,FEW060,0.00,VWS V14.01,2013-07-16 19:06:00,
2013-07-16 15:11:00,94.5,72.4,30.25,NNE,23,1.0,15.0,49,0.00,,FEW060,0.00,VWS V14.01,2013-07-16 19:11:00,
2013-07-16 15:16:00,94.7,72.0,30.25,NE,47,4.0,15.0,48,0.00,,FEW060,0.00,VWS V14.01,2013-07-16 19:16:00,
2013-07-16 15:21:00,94.8,72.7,30.25,NE,49,7.0,15.0,49,0.00,,FEW060,0.00,VWS V14.01,2013-07-16 19:21:00,
2013-07-16 15:26:00,94.8,72.7,30.24,NE,40,0.0,15.0,49,0.00,,FEW060,0.00,VWS V14.01,2013-07-16 19:26:00,
2013-07-16 15:31:00,95.2,73.0,30.24,North,350,4.0,7.0,49,0.00,,FEW060,0.00,VWS V14.01,2013-07-16 19:31:00,
2013-07-16 15:36:00,95.2,73.0,30.24,NNE,12,8.0,9.0,49,0.00,,FEW060,0.00,VWS V14.01,2013-07-16 19:36:00,
2013-07-16 15:41:00,95.0,71.6,30.24,NNE,22,0.0,9.0,47,0.00,,FEW060,0.00,VWS V14.01,2013-07-16 19:41:00,
2013-07-16 15:46:00,95.2,72.4,30.24,North,4,2.0,9.0,48,0.00,,FEW060,0.00,VWS V14.01,2013-07-16 19:46:00,
2013-07-16 15:51:00,95.5,72.7,30.24,NE,34,5.0,9.0,48,0.00,,FEW060,0.00,VWS V14.01,2013-07-16 19:51:00,
2013-07-16 15:56:00,95.5,72.7,30.24,North,6,7.0,9.0,48,0.00,,FEW060,0.00,VWS V14.01,2013-07-16 19:56:00,
2013-07-16 16:01:00,95.1,72.3,30.24,North,359,0.0,5.0,48,0.00,,FEW060,0.00,VWS V14.01,2013-07-16 20:01:00,
2013-07-16 16:06:00,95.2,72.4,30.24,North,6,6.0,7.0,48,0.00,,FEW060,0.00,VWS V14.01,2013-07-16 20:06:00,
2013-07-16 16:11:00,95.3,72.5,30.23,NNW,343,1.0,11.0,48,0.00,,FEW060,0.00,VWS V14.01,2013-07-16 20:11:00,
2013-07-16 16:16:00,95.3,71.9,30.24,NNE,14,4.0,11.0,47,0.00,,FEW060,0.00,VWS V14.01,2013-07-16 20:16:00,
2013-07-16 16:21:00,94.8,72.1,30.23,NE,36,8.0,12.0,48,0.00,,FEW060,0.00,VWS V14.01,2013-07-16 20:21:00,
2013-07-16 16:22:00,94.8,72.1,30.23,NE,43,6.0,12.0,48,0.00,,FEW060,0.00,VWS V14.01,2013-07-16 20:22:00,
2013-07-16 16:27:00,95.2,71.8,30.23,North,353,0.0,12.0,47,0.00,,FEW060,0.00,VWS V14.01,2013-07-16 20:27:00,
2013-07-16 16:32:00,95.8,71.7,30.23,NE,47,4.0,5.0,46,0.00,,FEW055,0.00,VWS V14.01,2013-07-16 20:32:00,
2013-07-16 16:37:00,95.8,71.1,30.23,NE,45,6.0,13.0,45,0.00,,FEW055,0.00,VWS V14.01,2013-07-16 20:37:00,
2013-07-16 16:42:00,95.4,72.0,30.24,ENE,58,6.0,13.0,47,0.00,,FEW055,0.00,VWS V14.01,2013-07-16 20:42:00,
2013-07-16 16:47:00,95.2,71.8,30.24,North,7,1.0,13.0,47,0.00,,FEW055,0.00,VWS V14.01,2013-07-16 20:47:00,
2013-07-16 16:52:00,95.4,70.7,30.23,North,359,6.0,13.0,45,0.00,,FEW055,0.00,VWS V14.01,2013-07-16 20:52:00,
2013-07-16 16:57:00,95.5,70.8,30.23,NE,44,0.0,13.0,45,0.00,,FEW055,0.00,VWS V14.01,2013-07-16 20:57:00,
2013-07-16 17:02:00,95.6,70.9,30.23,WNW,290,0.0,3.0,45,0.00,,FEW065,0.00,VWS V14.01,2013-07-16 21:02:00,
2013-07-16 17:07:00,95.7,70.3,30.23,NE,41,3.0,7.0,44,0.00,,FEW065,0.00,VWS V14.01,2013-07-16 21:07:00,
2013-07-16 17:12:00,95.6,70.2,30.23,North,358,0.0,8.0,44,0.00,,FEW065,0.00,VWS V14.01,2013-07-16 21:12:00,
2013-07-16 17:17:00,96.0,69.9,30.23,North,6,3.0,8.0,43,0.00,,FEW065,0.00,VWS V14.01,2013-07-16 21:17:00,
2013-07-16 17:22:00,96.0,69.2,30.23,North,357,3.0,8.0,42,0.00,,FEW065,0.00,VWS V14.01,2013-07-16 21:22:00,
2013-07-16 17:27:00,95.8,69.0,30.23,NE,45,0.0,9.0,42,0.00,,FEW065,0.00,VWS V14.01,2013-07-16 21:27:00,
2013-07-16 17:32:00,96.0,69.2,30.23,NNE,17,0.0,3.0,42,0.00,,FEW065,0.00,VWS V14.01,2013-07-16 21:32:00,
2013-07-16 17:37:00,95.9,69.8,30.23,North,357,0.0,6.0,43,0.00,,FEW065,0.00,VWS V14.01,2013-07-16 21:37:00,
2013-07-16 17:42:00,96.0,70.6,30.23,NNE,12,0.0,6.0,44,0.00,,FEW065,0.00,VWS V14.01,2013-07-16 21:42:00,
2013-07-16 17:47:00,95.5,69.5,30.23,NNW,341,2.0,8.0,43,0.00,,FEW065,0.00,VWS V14.01,2013-07-16 21:47:00,
2013-07-16 17:52:00,95.3,69.3,30.23,NNW,348,6.0,8.0,43,0.00,,FEW065,0.00,VWS V14.01,2013-07-16 21:52:00,
2013-07-16 17:57:00,95.5,69.5,30.23,North,4,0.0,8.0,43,0.00,,FEW065,0.00,VWS V14.01,2013-07-16 21:57:00,
2013-07-16 18:03:00,95.6,69.6,30.23,NNW,343,2.0,4.0,43,0.00,,FEW075,0.00,VWS V14.01,2013-07-16 22:03:00,
2013-07-16 18:08:00,95.9,69.1,30.23,North,7,5.0,6.0,42,0.00,,FEW075,0.00,VWS V14.01,2013-07-16 22:08:00,
2013-07-16 18:13:00,95.6,68.9,30.23,NE,45,1.0,7.0,42,0.00,,FEW075,0.00,VWS V14.01,2013-07-16 22:13:00,
2013-07-16 18:18:00,95.5,69.5,30.23,NE,45,0.0,7.0,43,0.00,,FEW075,0.00,VWS V14.01,2013-07-16 22:18:00,
2013-07-16 18:23:00,95.8,69.7,30.23,NE,36,0.0,7.0,43,0.00,,FEW075,0.00,VWS V14.01,2013-07-16 22:23:00,
2013-07-16 18:28:00,95.7,69.6,30.23,North,5,0.0,7.0,43,0.00,,FEW075,0.00,VWS V14.01,2013-07-16 22:28:00,
2013-07-16 18:33:00,96.0,69.2,30.23,North,5,0.0,1.0,42,0.00,,FEW075,0.00,VWS V14.01,2013-07-16 22:33:00,
2013-07-16 18:38:00,96.5,69.0,30.23,North,5,0.0,1.0,41,0.00,,FEW075,0.00,VWS V14.01,2013-07-16 22:38:00,
2013-07-16 18:43:00,96.4,69.6,30.23,NNE,20,0.0,2.0,42,0.00,,FEW075,0.00,VWS V14.01,2013-07-16 22:43:00,
2013-07-16 18:48:00,96.3,69.5,30.23,North,8,0.0,2.0,42,0.00,,FEW075,0.00,VWS V14.01,2013-07-16 22:48:00,
2013-07-16 18:53:00,96.1,70.0,30.23,NE,42,0.0,3.0,43,0.00,,FEW075,0.00,VWS V14.01,2013-07-16 22:53:00,
2013-07-16 18:58:00,95.9,70.5,30.23,NE,42,0.0,3.0,44,0.00,,FEW075,0.00,VWS V14.01,2013-07-16 22:58:00,
2013-07-16 19:03:00,95.4,70.7,30.23,NE,42,0.0,1.0,45,0.00,,FEW075,0.00,VWS V14.01,2013-07-16 23:03:00,
2013-07-16 19:08:00,94.4,71.1,30.23,NE,42,0.0,2.0,47,0.00,,FEW075,0.00,VWS V14.01,2013-07-16 23:08:00,
2013-07-16 19:13:00,93.3,71.3,30.23,NE,42,0.0,2.0,49,0.00,,FEW075,0.00,VWS V14.01,2013-07-16 23:13:00,
2013-07-16 19:18:00,92.8,71.4,30.23,NE,42,0.0,2.0,50,0.00,,FEW075,0.00,VWS V14.01,2013-07-16 23:18:00,
2013-07-16 19:23:00,92.8,73.2,30.23,NE,42,0.0,2.0,53,0.00,,FEW075,0.00,VWS V14.01,2013-07-16 23:23:00,
2013-07-16 19:28:00,92.2,73.2,30.23,NE,42,0.0,2.0,54,0.00,,FEW075,0.00,VWS V14.01,2013-07-16 23:28:00,
2013-07-16 19:33:00,91.4,74.0,30.24,NE,42,0.0,0.0,57,0.00,,FEW075,0.00,VWS V14.01,2013-07-16 23:33:00,
2013-07-16 19:38:00,90.3,74.0,30.24,NE,41,0.0,0.0,59,0.00,,FEW075,0.00,VWS V14.01,2013-07-16 23:38:00,
2013-07-16 19:43:00,89.5,74.3,30.24,NE,41,0.0,1.0,61,0.00,,FEW075,0.00,VWS V14.01,2013-07-16 23:43:00,
2013-07-16 19:48:00,88.6,73.9,30.24,NE,41,0.0,1.0,62,0.00,,FEW075,0.00,VWS V14.01,2013-07-16 23:48:00,
2013-07-16 19:53:00,87.7,73.6,30.24,NE,41,0.0,1.0,63,0.00,,FEW075,0.00,VWS V14.01,2013-07-16 23:53:00,
2013-07-16 19:58:00,86.8,73.2,30.24,NE,41,0.0,1.0,64,0.00,,FEW075,0.00,VWS V14.01,2013-07-16 23:58:00,
2013-07-16 20:03:00,85.9,73.2,30.24,NE,41,0.0,1.0,66,0.00,,BKN090,0.00,VWS V14.01,2013-07-17 00:03:00,
2013-07-16 20:08:00,85.1,72.9,30.24,NE,41,0.0,1.0,67,0.00,,BKN090,0.00,VWS V14.01,2013-07-17 00:08:00,
2013-07-16 20:13:00,84.5,72.8,30.24,NE,40,0.0,1.0,68,0.00,,BKN090,0.00,VWS V14.01,2013-07-17 00:13:00,
2013-07-16 20:18:00,83.8,72.6,30.24,NNE,27,0.0,1.0,69,0.00,,BKN090,0.00,VWS V14.01,2013-07-17 00:18:00,
2013-07-16 20:23:00,83.3,72.5,30.24,NNE,27,0.0,1.0,70,0.00,,BKN090,0.00,VWS V14.01,2013-07-17 00:23:00,
2013-07-16 20:28:00,82.7,71.9,30.24,NNE,28,0.0,1.0,70,0.00,,BKN090,0.00,VWS V14.01,2013-07-17 00:28:00,
2013-07-16 20:33:00,82.2,71.9,30.24,NNE,26,0.0,0.0,71,0.00,,BKN090,0.00,VWS V14.01,2013-07-17 00:33:00,
2013-07-16 20:38:00,81.7,71.8,30.24,North,383,0.0,0.0,72,0.00,,BKN090,0.00,VWS V14.01,2013-07-17 00:38:00,
2013-07-16 20:43:00,81.2,71.7,30.24,NNE,28,0.0,0.0,73,0.00,,BKN090,0.00,VWS V14.01,2013-07-17 00:43:00,
2013-07-16 20:48:00,80.7,71.7,30.24,NNE,24,0.0,0.0,74,0.00,,BKN090,0.00,VWS V14.01,2013-07-17 00:48:00,
2013-07-16 20:53:00,80.3,71.7,30.24,NNE,24,0.0,0.0,75,0.00,,BKN090,0.00,VWS V14.01,2013-07-17 00:53:00,
2013-07-16 20:59:00,79.9,71.3,30.24,NNE,23,0.0,0.0,75,0.00,,BKN090,0.00,VWS V14.01,2013-07-17 00:59:00,
2013-07-16 21:04:00,79.6,71.0,30.24,NNE,25,0.0,0.0,75,0.00,,BKN085,0.00,VWS V14.01,2013-07-17 01:04:00,
2013-07-16 21:09:00,79.1,70.9,30.24,NE,39,0.0,0.0,76,0.00,,BKN085,0.00,VWS V14.01,2013-07-17 01:09:00,
2013-07-16 21:14:00,78.7,70.5,30.25,NE,40,0.0,0.0,76,0.00,,BKN085,0.00,VWS V14.01,2013-07-17 01:14:00,
2013-07-16 21:19:00,78.3,70.5,30.25,NE,40,0.0,0.0,77,0.00,,BKN085,0.00,VWS V14.01,2013-07-17 01:19:00,
2013-07-16 21:24:00,78.0,69.8,30.25,NE,41,0.0,0.0,76,0.00,,BKN085,0.00,VWS V14.01,2013-07-17 01:24:00,
2013-07-16 21:29:00,77.7,69.9,30.25,NE,41,0.0,0.0,77,0.00,,BKN085,0.00,VWS V14.01,2013-07-17 01:29:00,
2013-07-16 21:34:00,77.4,70.4,30.25,NE,41,0.0,0.0,79,0.00,,BKN085,0.00,VWS V14.01,2013-07-17 01:34:00,
2013-07-16 21:39:00,77.2,70.2,30.25,NE,41,0.0,0.0,79,0.00,,BKN085,0.00,VWS V14.01,2013-07-17 01:39:00,
2013-07-16 21:44:00,76.9,70.3,30.25,NE,41,0.0,0.0,80,0.00,,BKN085,0.00,VWS V14.01,2013-07-17 01:44:00,
2013-07-16 21:49:00,76.7,70.1,30.25,NE,41,0.0,0.0,80,0.00,,BKN085,0.00,VWS V14.01,2013-07-17 01:49:00,
2013-07-16 21:54:00,76.4,69.8,30.26,NE,41,0.0,0.0,80,0.00,,BKN085,0.00,VWS V14.01,2013-07-17 01:54:00,
2013-07-16 21:59:00,76.2,69.9,30.26,NE,41,0.0,0.0,81,0.00,,BKN085,0.00,VWS V14.01,2013-07-17 01:59:00,
2013-07-16 22:04:00,75.9,69.7,30.26,NE,41,0.0,0.0,81,0.00,,BKN065,0.00,VWS V14.01,2013-07-17 02:04:00,
2013-07-16 22:09:00,75.7,69.8,30.26,NE,41,0.0,0.0,82,0.00,,BKN065,0.00,VWS V14.01,2013-07-17 02:09:00,
2013-07-16 22:14:00,75.4,69.5,30.26,NE,41,0.0,0.0,82,0.00,,BKN065,0.00,VWS V14.01,2013-07-17 02:14:00,
2013-07-16 22:19:00,75.2,69.3,30.26,NE,41,0.0,0.0,82,0.00,,BKN065,0.00,VWS V14.01,2013-07-17 02:19:00,
2013-07-16 22:24:00,74.9,69.0,30.26,NE,41,0.0,0.0,82,0.00,,BKN065,0.00,VWS V14.01,2013-07-17 02:24:00,
2013-07-16 22:29:00,74.7,69.2,30.26,NE,41,0.0,0.0,83,0.00,,BKN065,0.00,VWS V14.01,2013-07-17 02:29:00,
2013-07-16 22:34:00,74.6,69.4,30.26,NE,41,0.0,0.0,84,0.00,,BKN065,0.00,VWS V14.01,2013-07-17 02:34:00,
2013-07-16 22:39:00,74.3,69.2,30.26,NE,41,0.0,0.0,84,0.00,,BKN065,0.00,VWS V14.01,2013-07-17 02:39:00,
2013-07-16 22:44:00,74.2,69.1,30.26,NE,41,0.0,0.0,84,0.00,,BKN065,0.00,VWS V14.01,2013-07-17 02:44:00,
2013-07-16 22:49:00,74.0,68.9,30.26,NE,41,0.0,0.0,84,0.00,,BKN065,0.00,VWS V14.01,2013-07-17 02:49:00,
2013-07-16 22:54:00,73.8,69.0,30.26,NE,41,0.0,0.0,85,0.00,,BKN065,0.00,VWS V14.01,2013-07-17 02:54:00,
2013-07-16 22:59:00,73.7,69.3,30.26,NE,41,0.0,0.0,86,0.00,,BKN065,0.00,VWS V14.01,2013-07-17 02:59:00,
2013-07-16 23:04:00,73.5,69.4,30.26,NE,41,0.0,0.0,87,0.00,,SCT070,0.00,VWS V14.01,2013-07-17 03:04:00,
2013-07-16 23:09:00,73.3,69.2,30.26,NE,41,0.0,0.0,87,0.00,,SCT070,0.00,VWS V14.01,2013-07-17 03:09:00,
2013-07-16 23:14:00,73.2,69.1,30.26,NE,41,0.0,0.0,87,0.00,,SCT070,0.00,VWS V14.01,2013-07-17 03:14:00,
2013-07-16 23:19:00,73.0,68.9,30.26,NE,41,0.0,0.0,87,0.00,,SCT070,0.00,VWS V14.01,2013-07-17 03:19:00,
2013-07-16 23:24:00,72.9,69.1,30.27,North,401,0.0,0.0,88,0.00,,SCT070,0.00,VWS V14.01,2013-07-17 03:24:00,
2013-07-16 23:29:00,72.7,68.9,30.27,NE,41,0.0,0.0,88,0.00,,SCT070,0.00,VWS V14.01,2013-07-17 03:29:00,
2013-07-16 23:34:00,72.6,68.8,30.27,NE,41,0.0,0.0,88,0.00,,SCT070,0.00,VWS V14.01,2013-07-17 03:34:00,
2013-07-16 23:39:00,72.5,69.1,30.27,NE,41,0.0,0.0,89,0.00,,SCT070,0.00,VWS V14.01,2013-07-17 03:39:00,
2013-07-16 23:44:00,72.4,69.3,30.27,NE,41,0.0,0.0,90,0.00,,SCT070,0.00,VWS V14.01,2013-07-17 03:44:00,
2013-07-16 23:49:00,72.3,69.2,30.27,NE,41,0.0,0.0,90,0.00,,SCT070,0.00,VWS V14.01,2013-07-17 03:49:00,
2013-07-16 23:54:00,72.1,69.0,30.27,NE,41,0.0,0.0,90,0.00,,SCT070,0.00,VWS V14.01,2013-07-17 03:54:00,
2013-07-16 23:59:00,71.9,68.8,30.27,NE,41,0.0,0.0,90,0.00,,SCT070,0.00,VWS V14.01,2013-07-17 03:59:00,